createdAt,value
2019-01-21T00:01:39.671Z,-2.50
2019-01-21T00:03:44.537Z,-2.50
2019-01-21T00:05:50.006Z,-2.50
2019-01-21T00:07:56.511Z,-2.50
2019-01-21T00:10:04.710Z,-2.50
2019-01-21T00:12:09.450Z,-2.50
2019-01-21T00:14:14.700Z,-2.50
2019-01-21T00:16:20.509Z,-2.60
2019-01-21T00:18:25.954Z,-2.60
2019-01-21T00:20:32.843Z,-2.60
2019-01-21T00:22:39.717Z,-2.50
2019-01-21T00:24:48.781Z,-2.60
2019-01-21T00:26:54.398Z,-2.70
2019-01-21T00:29:00.222Z,-2.70
2019-01-21T00:31:06.408Z,-2.70
2019-01-21T00:33:12.114Z,-2.70
2019-01-21T00:35:17.053Z,-2.70
2019-01-21T00:37:21.730Z,-2.70
2019-01-21T00:39:29.082Z,-2.80
2019-01-21T00:41:33.606Z,-2.70
2019-01-21T00:43:38.215Z,-2.80
2019-01-21T00:45:42.668Z,-2.80
2019-01-21T00:47:47.703Z,-2.60
2019-01-21T00:49:52.664Z,-2.60
2019-01-21T00:51:59.826Z,-2.70
2019-01-21T00:54:08.212Z,-2.60
2019-01-21T00:56:18.326Z,-2.60
2019-01-21T00:58:22.968Z,-2.70
2019-01-21T01:00:28.383Z,-2.80
2019-01-21T01:02:36.983Z,-2.80
2019-01-21T01:04:41.723Z,-2.90
2019-01-21T01:06:47.038Z,-2.90
2019-01-21T01:08:51.610Z,-2.90
2019-01-21T01:10:57.723Z,-2.90
2019-01-21T01:13:02.824Z,-2.80
2019-01-21T01:15:10.462Z,-2.80
2019-01-21T01:17:16.933Z,-2.80
2019-01-21T01:19:23.507Z,-2.80
2019-01-21T01:21:30.120Z,-2.90
2019-01-21T01:23:38.814Z,-2.90
2019-01-21T01:25:45.678Z,-2.80
2019-01-21T01:27:51.813Z,-2.80
2019-01-21T01:29:57.450Z,-2.80
2019-01-21T01:32:06.039Z,-2.70
2019-01-21T01:34:11.548Z,-2.80
2019-01-21T01:36:16.918Z,-2.80
2019-01-21T01:38:22.005Z,-2.90
2019-01-21T01:40:27.300Z,-2.90
2019-01-21T01:42:32.139Z,-2.80
2019-01-21T01:44:36.960Z,-2.90
2019-01-21T01:46:43.089Z,-2.90
2019-01-21T01:48:48.420Z,-3.00
2019-01-21T01:50:53.646Z,-2.90
2019-01-21T01:52:58.751Z,-2.80
2019-01-21T01:55:04.256Z,-2.80
2019-01-21T01:57:08.909Z,-2.80
2019-01-21T01:59:13.860Z,-2.80
2019-01-21T02:01:18.655Z,-3.00
2019-01-21T02:03:23.328Z,-3.00
2019-01-21T02:05:28.199Z,-3.00
2019-01-21T02:07:34.120Z,-3.00
2019-01-21T02:09:39.340Z,-3.10
2019-01-21T02:11:44.126Z,-3.10
2019-01-21T02:13:51.009Z,-3.10
2019-01-21T02:16:00.713Z,-3.00
2019-01-21T02:18:07.833Z,-3.10
2019-01-21T02:20:13.748Z,-3.00
2019-01-21T02:22:28.193Z,-3.00
2019-01-21T02:24:39.300Z,-3.10
2019-01-21T02:27:06.651Z,-3.20
2019-01-21T02:29:45.365Z,-3.20
2019-01-21T02:32:38.219Z,-3.30
2019-01-21T02:35:12.029Z,-3.30
2019-01-21T02:38:13.214Z,-3.30
2019-01-21T02:40:44.829Z,-3.30
2019-01-21T02:43:05.122Z,-3.30
2019-01-21T02:45:35.789Z,-3.20
2019-01-21T02:48:04.603Z,-3.20
2019-01-21T02:50:30.503Z,-3.10
2019-01-21T02:53:25.443Z,-3.10
2019-01-21T02:55:56.823Z,-3.10
2019-01-21T02:58:45.286Z,-3.20
2019-01-21T03:01:21.405Z,-3.20
2019-01-21T03:03:50.613Z,-3.30
2019-01-21T03:06:11.191Z,-3.30
2019-01-21T03:08:45.859Z,-3.30
2019-01-21T03:11:20.494Z,-3.40
2019-01-21T03:13:43.587Z,-3.40
2019-01-21T03:16:37.070Z,-3.50
2019-01-21T03:19:37.859Z,-3.50
2019-01-21T03:22:28.781Z,-3.50
2019-01-21T03:24:56.895Z,-3.50
2019-01-21T03:27:39.541Z,-3.40
2019-01-21T03:30:23.423Z,-3.40
2019-01-21T03:33:15.421Z,-3.50
2019-01-21T03:36:04.834Z,-3.40
2019-01-21T03:38:47.627Z,-3.40
2019-01-21T03:41:45.075Z,-3.40
2019-01-21T03:44:31.974Z,-3.50
2019-01-21T03:47:20.734Z,-3.40
2019-01-21T03:49:46.306Z,-3.50
2019-01-21T03:52:35.032Z,-3.50
2019-01-21T03:54:44.230Z,-3.50
2019-01-21T03:57:13.208Z,-3.50
2019-01-21T03:59:41.226Z,-3.60
2019-01-21T04:02:38.471Z,-3.60
2019-01-21T04:05:00.568Z,-3.60
2019-01-21T04:07:18.521Z,-3.60
2019-01-21T04:09:45.524Z,-3.60
2019-01-21T04:12:40.918Z,-3.60
2019-01-21T04:15:24.655Z,-3.60
2019-01-21T04:18:03.345Z,-3.50
2019-01-21T04:20:54.867Z,-3.50
2019-01-21T04:23:25.203Z,-3.60
2019-01-21T04:25:54.523Z,-3.60
2019-01-21T04:28:46.301Z,-3.60
2019-01-21T04:31:12.855Z,-3.60
2019-01-21T04:33:51.770Z,-3.60
2019-01-21T04:36:34.583Z,-3.60
2019-01-21T04:39:15.642Z,-3.70
2019-01-21T04:41:32.861Z,-3.70
2019-01-21T04:44:25.884Z,-3.60
2019-01-21T04:46:54.436Z,-3.60
2019-01-21T04:49:35.746Z,-3.70
2019-01-21T04:52:13.831Z,-3.60
2019-01-21T04:54:58.239Z,-3.70
2019-01-21T04:57:33.559Z,-3.70
2019-01-21T05:00:28.541Z,-3.70
2019-01-21T05:03:13.994Z,-3.70
2019-01-21T05:06:05.841Z,-3.60
2019-01-21T05:08:39.236Z,-3.60
2019-01-21T05:11:36.807Z,-3.60
2019-01-21T05:14:01.594Z,-3.70
2019-01-21T05:16:39.828Z,-3.60
2019-01-21T05:19:25.063Z,-3.60
2019-01-21T05:22:06.701Z,-3.70
2019-01-21T05:24:57.072Z,-3.70
2019-01-21T05:27:43.201Z,-3.70
2019-01-21T05:30:32.507Z,-3.60
2019-01-21T05:32:59.702Z,-3.60
2019-01-21T05:35:54.695Z,-3.60
2019-01-21T05:38:29.978Z,-3.70
2019-01-21T05:41:09.389Z,-3.70
2019-01-21T05:43:55.030Z,-3.70
2019-01-21T05:46:41.449Z,-3.70
2019-01-21T05:49:26.068Z,-3.80
2019-01-21T05:52:29.465Z,-3.90
2019-01-21T05:55:15.230Z,-3.90
2019-01-21T05:58:05.471Z,-3.90
2019-01-21T06:00:18.627Z,-3.80
2019-01-21T06:02:45.985Z,-3.80
2019-01-21T06:05:24.933Z,-3.80
2019-01-21T06:08:09.558Z,-3.70
2019-01-21T06:10:35.376Z,-3.70
2019-01-21T06:13:09.329Z,-3.70
2019-01-21T06:16:06.286Z,-3.60
2019-01-21T06:18:57.393Z,-3.70
2019-01-21T06:21:28.485Z,-3.60
2019-01-21T06:24:05.262Z,-3.80
2019-01-21T06:26:33.800Z,-3.70
2019-01-21T06:28:57.306Z,-3.70
2019-01-21T06:31:38.685Z,-3.90
2019-01-21T06:34:18.909Z,-3.80
2019-01-21T06:36:37.835Z,-3.80
2019-01-21T06:39:24.010Z,-3.80
2019-01-21T06:41:58.772Z,-3.80
2019-01-21T06:44:47.155Z,-3.80
2019-01-21T06:47:16.132Z,-3.90
2019-01-21T06:50:09.017Z,-3.90
2019-01-21T06:52:43.440Z,-3.90
2019-01-21T06:55:23.030Z,-3.80
2019-01-21T06:58:14.629Z,-3.90
2019-01-21T07:01:03.530Z,-4.00
2019-01-21T07:03:36.824Z,-3.80
2019-01-21T07:06:20.318Z,-3.90
2019-01-21T07:08:49.626Z,-3.80
2019-01-21T07:11:32.534Z,-3.80
2019-01-21T07:14:22.866Z,-3.90
2019-01-21T07:17:18.117Z,-3.90
2019-01-21T07:19:56.530Z,-3.90
2019-01-21T07:22:25.717Z,-3.90
2019-01-21T07:25:06.031Z,-4.00
2019-01-21T07:27:37.826Z,-4.10
2019-01-21T07:30:44.591Z,-4.00
2019-01-21T07:33:20.761Z,-4.10
2019-01-21T07:35:50.357Z,-4.10
2019-01-21T07:38:08.194Z,-4.10
2019-01-21T07:40:58.618Z,-4.10
2019-01-21T07:43:27.825Z,-4.10
2019-01-21T07:46:03.156Z,-4.10
2019-01-21T07:48:33.127Z,-4.00
2019-01-21T07:51:03.102Z,-4.00
2019-01-21T07:53:36.065Z,-3.90
2019-01-21T07:56:05.395Z,-3.80
2019-01-21T07:58:43.497Z,-3.80
2019-01-21T08:01:00.369Z,-3.90
2019-01-21T08:03:31.809Z,-3.80
2019-01-21T08:06:02.967Z,-3.80
2019-01-21T08:08:37.591Z,-3.80
2019-01-21T08:10:56.581Z,-3.80
2019-01-21T08:13:25.219Z,-3.70
2019-01-21T08:16:07.252Z,-3.70
2019-01-21T08:18:33.970Z,-3.70
2019-01-21T08:20:48.345Z,-3.70
2019-01-21T08:23:39.812Z,-3.60
2019-01-21T08:26:43.750Z,-3.60
2019-01-21T08:29:19.460Z,-3.50
2019-01-21T08:31:55.706Z,-3.40
2019-01-21T08:34:46.290Z,-3.40
2019-01-21T08:37:32.715Z,-3.40
2019-01-21T08:39:53.895Z,-3.40
2019-01-21T08:42:40.531Z,-3.20
2019-01-21T08:45:27.418Z,-3.10
2019-01-21T08:47:45.917Z,-3.10
2019-01-21T08:50:31.001Z,-3.00
2019-01-21T08:53:06.686Z,-2.90
2019-01-21T08:55:33.075Z,-2.80
2019-01-21T08:58:02.649Z,-2.70
2019-01-21T09:00:27.702Z,-2.60
2019-01-21T09:03:07.468Z,-2.60
2019-01-21T09:06:02.456Z,-2.70
2019-01-21T09:08:38.677Z,-2.70
2019-01-21T09:11:22.891Z,-2.60
2019-01-21T09:13:46.635Z,-2.60
2019-01-21T09:16:13.885Z,-2.50
2019-01-21T09:18:45.026Z,-2.50
2019-01-21T09:21:25.149Z,-2.50
2019-01-21T09:23:59.111Z,-2.50
2019-01-21T09:26:40.302Z,-2.50
2019-01-21T09:29:05.603Z,-2.40
2019-01-21T09:31:25.711Z,-2.30
2019-01-21T09:34:08.304Z,-2.30
2019-01-21T09:36:46.557Z,-2.30
2019-01-21T09:39:18.267Z,-2.20
2019-01-21T09:42:09.962Z,-2.20
2019-01-21T09:45:16.297Z,-2.10
2019-01-21T09:47:19.601Z,-2.10
2019-01-21T09:49:22.500Z,-2.10
2019-01-21T09:51:28.860Z,-2.00
2019-01-21T09:53:34.287Z,-2.10
2019-01-21T09:55:43.327Z,-2.00
2019-01-21T09:57:52.814Z,-1.90
2019-01-21T10:00:01.315Z,-1.90
2019-01-21T10:02:08.084Z,-1.90
2019-01-21T10:04:16.508Z,-1.90
2019-01-21T10:06:27.707Z,-1.80
2019-01-21T10:09:09.519Z,-1.80
2019-01-21T10:11:56.428Z,-1.70
2019-01-21T10:14:41.763Z,-1.70
2019-01-21T10:17:22.592Z,-1.60
2019-01-21T10:19:52.259Z,-1.60
2019-01-21T10:22:15.605Z,-1.60
2019-01-21T10:25:04.051Z,-1.50
2019-01-21T10:28:13.838Z,-1.50
2019-01-21T10:31:11.336Z,-1.40
2019-01-21T10:33:36.852Z,-1.40
2019-01-21T10:36:23.262Z,-1.30
2019-01-21T10:39:07.408Z,-1.30
2019-01-21T10:42:08.724Z,-1.30
2019-01-21T10:44:52.885Z,-1.20
2019-01-21T10:47:29.823Z,-1.20
2019-01-21T10:50:36.377Z,-1.20
2019-01-21T10:52:51.794Z,-1.10
2019-01-21T10:55:38.358Z,-1.10
2019-01-21T10:57:53.478Z,-1.00
2019-01-21T11:01:06.890Z,-1.00
2019-01-21T11:03:52.973Z,-1.00
2019-01-21T11:06:59.529Z,-0.90
2019-01-21T11:09:26.672Z,-0.90
2019-01-21T11:11:56.254Z,-0.80
2019-01-21T11:14:44.616Z,-0.80
2019-01-21T11:17:36.198Z,-0.70
2019-01-21T11:20:11.636Z,-0.70
2019-01-21T11:22:34.498Z,-0.60
2019-01-21T11:25:15.428Z,-0.60
2019-01-21T11:28:00.984Z,-0.50
2019-01-21T11:30:52.424Z,-0.50
2019-01-21T11:33:39.095Z,-0.50
2019-01-21T11:36:20.148Z,-0.40
2019-01-21T11:39:09.004Z,-0.40
2019-01-21T11:41:55.052Z,-0.30
2019-01-21T11:44:50.240Z,-0.30
2019-01-21T11:47:14.045Z,-0.30
2019-01-21T11:50:03.694Z,-0.20
2019-01-21T11:52:34.002Z,-0.10
2019-01-21T11:54:59.369Z,0.00
2019-01-21T11:57:50.890Z,0.10
2019-01-21T12:00:07.819Z,0.00
2019-01-21T12:02:44.577Z,0.10
2019-01-21T12:05:08.520Z,0.20
2019-01-21T12:07:29.841Z,0.20
2019-01-21T12:09:57.942Z,0.20
2019-01-21T12:12:46.309Z,0.20
2019-01-21T12:15:38.017Z,0.30
2019-01-21T12:18:22.984Z,0.40
2019-01-21T12:21:08.195Z,0.40
2019-01-21T12:23:38.767Z,0.40
2019-01-21T12:25:59.567Z,0.40
2019-01-21T12:28:35.711Z,0.50
2019-01-21T12:31:01.576Z,0.50
2019-01-21T12:33:59.204Z,0.50
2019-01-21T12:36:29.075Z,0.60
2019-01-21T12:39:13.178Z,0.60
2019-01-21T12:41:46.432Z,0.80
2019-01-21T12:44:28.099Z,0.80
2019-01-21T12:46:51.411Z,0.80
2019-01-21T12:49:24.164Z,0.90
2019-01-21T12:52:07.778Z,1.00
2019-01-21T12:54:42.878Z,1.00
2019-01-21T12:57:46.313Z,0.90
2019-01-21T13:00:11.881Z,0.90
2019-01-21T13:02:24.801Z,0.90
2019-01-21T13:04:51.756Z,1.00
2019-01-21T13:07:18.598Z,1.10
2019-01-21T13:09:58.437Z,1.20
2019-01-21T13:12:30.300Z,1.30
2019-01-21T13:14:57.200Z,1.30
2019-01-21T13:17:32.913Z,1.30
2019-01-21T13:20:03.245Z,1.30
2019-01-21T13:22:57.220Z,1.30
2019-01-21T13:25:45.829Z,1.20
2019-01-21T13:28:22.689Z,1.30
2019-01-21T13:30:59.454Z,1.20
2019-01-21T13:33:36.472Z,1.30
2019-01-21T13:36:11.532Z,1.30
2019-01-21T13:39:01.663Z,1.40
2019-01-21T13:41:25.480Z,1.60
2019-01-21T13:43:56.189Z,1.60
2019-01-21T13:46:35.334Z,1.60
2019-01-21T13:49:04.486Z,1.60
2019-01-21T13:51:52.744Z,1.60
2019-01-21T13:54:52.830Z,1.60
2019-01-21T13:57:33.102Z,1.60
2019-01-21T14:00:32.590Z,1.60
2019-01-21T14:02:58.301Z,1.60
2019-01-21T14:05:49.295Z,1.60
2019-01-21T14:08:17.803Z,1.60
2019-01-21T14:10:43.040Z,1.60
2019-01-21T14:13:16.226Z,1.60
2019-01-21T14:16:32.861Z,1.60
2019-01-21T14:19:03.584Z,1.60
2019-01-21T14:21:48.058Z,1.50
2019-01-21T14:24:41.964Z,1.40
2019-01-21T14:27:28.076Z,1.40
2019-01-21T14:29:59.498Z,1.30
2019-01-21T14:32:32.946Z,1.30
2019-01-21T14:35:02.685Z,1.20
2019-01-21T14:37:30.550Z,1.20
2019-01-21T14:39:54.542Z,1.30
2019-01-21T14:42:49.009Z,1.30
2019-01-21T14:45:52.365Z,1.20
2019-01-21T14:48:23.027Z,1.10
2019-01-21T14:50:54.250Z,1.00
2019-01-21T14:53:45.843Z,0.90
2019-01-21T14:56:26.667Z,0.90
2019-01-21T14:58:54.322Z,0.90
2019-01-21T15:01:36.682Z,0.80
2019-01-21T15:04:09.658Z,0.80
2019-01-21T15:06:24.499Z,0.70
2019-01-21T15:08:34.337Z,0.70
2019-01-21T15:11:14.078Z,0.70
2019-01-21T15:14:02.457Z,0.60
2019-01-21T15:16:45.033Z,0.60
2019-01-21T15:19:00.228Z,0.50
2019-01-21T15:21:10.779Z,0.50
2019-01-21T15:23:59.572Z,0.50
2019-01-21T15:26:51.085Z,0.40
2019-01-21T15:29:38.648Z,0.40
2019-01-21T15:32:14.414Z,0.30
2019-01-21T15:35:09.076Z,0.30
2019-01-21T15:37:38.641Z,0.30
2019-01-21T15:40:09.507Z,0.20
2019-01-21T15:42:59.089Z,0.10
2019-01-21T15:45:25.634Z,0.10
2019-01-21T15:48:15.327Z,0.00
2019-01-21T15:50:51.226Z,0.00
2019-01-21T15:53:37.755Z,-0.10
2019-01-21T15:55:51.586Z,-0.10
2019-01-21T15:58:40.657Z,-0.20
2019-01-21T16:01:22.548Z,-0.20
2019-01-21T16:03:45.021Z,-0.30
2019-01-21T16:06:14.275Z,-0.30
2019-01-21T16:08:37.579Z,-0.30
2019-01-21T16:11:24.068Z,-0.30
2019-01-21T16:13:47.917Z,-0.40
2019-01-21T16:16:19.124Z,-0.40
2019-01-21T16:18:28.325Z,-0.50
2019-01-21T16:21:12.850Z,-0.60
2019-01-21T16:23:49.677Z,-0.50
2019-01-21T16:25:58.697Z,-0.50
2019-01-21T16:28:40.747Z,-0.60
2019-01-21T16:31:36.853Z,-0.60
2019-01-21T16:34:27.175Z,-0.70
2019-01-21T16:37:04.115Z,-0.60
2019-01-21T16:40:10.966Z,-0.70
2019-01-21T16:42:14.622Z,-0.70
2019-01-21T16:44:19.827Z,-0.80
2019-01-21T16:46:24.943Z,-0.80
2019-01-21T16:48:29.682Z,-0.80
2019-01-21T16:50:35.968Z,-0.90
2019-01-21T16:52:44.381Z,-0.90
2019-01-21T16:54:49.103Z,-0.90
2019-01-21T16:56:57.104Z,-1.00
2019-01-21T16:59:10.062Z,-1.00
2019-01-21T17:01:15.812Z,-1.00
2019-01-21T17:03:23.130Z,-1.00
2019-01-21T17:05:28.133Z,-1.00
2019-01-21T17:07:38.794Z,-1.10
2019-01-21T17:09:44.535Z,-1.00
2019-01-21T17:11:49.982Z,-1.00
2019-01-21T17:13:55.459Z,-1.10
2019-01-21T17:16:00.705Z,-1.10
2019-01-21T17:18:06.221Z,-1.10
2019-01-21T17:20:19.483Z,-1.10
2019-01-21T17:22:24.498Z,-1.10
2019-01-21T17:24:29.279Z,-1.10
2019-01-21T17:26:34.539Z,-1.20
2019-01-21T17:28:40.308Z,-1.20
2019-01-21T17:30:44.987Z,-1.30
2019-01-21T17:32:50.298Z,-1.20
2019-01-21T17:34:55.171Z,-1.20
2019-01-21T17:37:01.756Z,-1.20
2019-01-21T17:39:09.172Z,-1.20
2019-01-21T17:41:14.007Z,-1.20
2019-01-21T17:43:22.412Z,-1.20
2019-01-21T17:45:27.098Z,-1.20
2019-01-21T17:47:35.054Z,-1.20
2019-01-21T17:49:40.677Z,-1.20
2019-01-21T17:51:46.093Z,-1.20
2019-01-21T18:03:33.086Z,-1.20
2019-01-21T18:05:38.663Z,-1.30
2019-01-21T18:07:43.145Z,-1.30
2019-01-21T18:09:51.319Z,-1.30
2019-01-21T18:11:57.923Z,-1.30
2019-01-21T18:14:02.997Z,-1.40
2019-01-21T18:16:07.980Z,-1.40
2019-01-21T18:18:12.664Z,-1.30
2019-01-21T18:20:23.031Z,-1.30
2019-01-21T18:22:28.807Z,-1.30
2019-01-21T18:24:33.341Z,-1.30
2019-01-21T18:26:37.995Z,-1.40
2019-01-21T18:28:42.875Z,-1.40
2019-01-21T18:30:47.924Z,-1.40
2019-01-21T18:33:03.010Z,-1.50
2019-01-21T18:35:09.540Z,-1.50
2019-01-21T18:37:13.926Z,-1.50
2019-01-21T18:39:20.062Z,-1.50
2019-01-21T18:41:27.445Z,-1.50
2019-01-21T18:43:35.664Z,-1.60
2019-01-21T18:45:40.259Z,-1.50
2019-01-21T18:47:45.408Z,-1.60
2019-01-21T18:49:50.562Z,-1.60
2019-01-21T18:51:55.518Z,-1.60
2019-01-21T18:54:00.438Z,-1.60
2019-01-21T18:56:05.351Z,-1.70
2019-01-21T18:58:12.304Z,-1.70
2019-01-21T19:00:26.062Z,-1.70
2019-01-21T19:02:31.109Z,-1.70
2019-01-21T19:07:11.024Z,-1.70
2019-01-21T19:09:21.055Z,-1.70
2019-01-21T19:11:28.806Z,-1.70
2019-01-21T19:13:33.429Z,-1.80
2019-01-21T19:15:40.782Z,-1.80
2019-01-21T19:17:45.952Z,-1.80
2019-01-21T19:19:51.250Z,-1.80
2019-01-21T19:21:55.918Z,-1.80
2019-01-21T19:24:03.637Z,-1.80
2019-01-21T19:26:10.352Z,-1.80
2019-01-21T19:28:18.789Z,-1.80
2019-01-21T19:30:28.445Z,-1.80
2019-01-21T19:32:35.157Z,-1.80
2019-01-21T19:34:43.507Z,-1.80
2019-01-21T19:36:48.983Z,-1.90
2019-01-21T19:38:56.802Z,-1.90
2019-01-21T19:41:04.424Z,-1.90
2019-01-21T19:43:10.629Z,-2.00
2019-01-21T19:45:16.725Z,-2.00
2019-01-21T19:47:24.717Z,-2.00
2019-01-21T19:49:30.365Z,-2.10
2019-01-21T19:51:38.176Z,-2.10
2019-01-21T19:53:44.952Z,-2.10
2019-01-21T19:55:51.013Z,-2.20
2019-01-21T19:57:58.095Z,-2.10
2019-01-21T20:00:06.423Z,-2.00
2019-01-21T20:02:14.433Z,-2.10
2019-01-21T20:04:22.972Z,-2.10
2019-01-21T20:06:34.288Z,-2.00
2019-01-21T20:08:42.092Z,-2.10
2019-01-21T20:11:11.658Z,-2.10
2019-01-21T20:13:23.693Z,-2.20
2019-01-21T20:15:28.733Z,-2.20
2019-01-21T20:17:35.309Z,-2.20
2019-01-21T20:19:43.404Z,-2.10
2019-01-21T20:21:48.613Z,-2.10
2019-01-21T20:23:53.828Z,-2.10
2019-01-21T20:25:59.558Z,-2.10
2019-01-21T20:28:04.801Z,-2.00
2019-01-21T20:30:15.718Z,-2.10
2019-01-21T20:32:21.668Z,-2.20
2019-01-21T20:34:26.729Z,-2.20
2019-01-21T20:36:31.455Z,-2.10
2019-01-21T20:38:36.015Z,-2.10
2019-01-21T20:40:40.845Z,-2.10
2019-01-21T20:42:50.182Z,-2.20
2019-01-21T20:44:54.995Z,-2.00
2019-01-21T20:47:00.861Z,-2.10
2019-01-21T20:49:05.701Z,-2.20
2019-01-21T20:51:11.133Z,-2.20
2019-01-21T20:53:16.626Z,-2.20
2019-01-21T20:55:23.017Z,-2.20
2019-01-21T20:57:29.949Z,-2.20
2019-01-21T20:59:34.701Z,-2.20
2019-01-21T21:06:32.819Z,-2.20
2019-01-21T21:08:43.460Z,-2.10
2019-01-21T21:10:49.127Z,-2.10
2019-01-21T21:12:57.250Z,-2.20
2019-01-21T21:15:01.691Z,-2.10
2019-01-21T21:17:06.090Z,-2.20
2019-01-21T21:19:10.459Z,-2.20
2019-01-21T21:21:14.868Z,-2.20
2019-01-21T21:23:20.159Z,-2.20
2019-01-21T21:25:24.805Z,-2.20
2019-01-21T21:27:30.744Z,-2.10
2019-01-21T21:29:35.712Z,-2.10
2019-01-21T21:31:40.169Z,-2.20
2019-01-21T21:33:44.699Z,-2.20
2019-01-21T21:35:49.970Z,-2.10
2019-01-21T21:37:54.935Z,-2.20
2019-01-21T21:39:59.459Z,-2.20
2019-01-21T21:42:04.042Z,-2.20
2019-01-21T21:44:11.100Z,-2.20
2019-01-21T21:46:16.071Z,-2.20
2019-01-21T21:48:20.519Z,-2.20
2019-01-21T21:50:34.391Z,-2.30
2019-01-21T21:52:37.367Z,-2.30
2019-01-21T21:54:42.019Z,-2.20
2019-01-21T21:56:46.523Z,-2.30
2019-01-21T21:58:51.669Z,-2.20
2019-01-21T22:00:56.277Z,-2.20
2019-01-21T22:03:00.727Z,-2.20
2019-01-21T22:05:06.048Z,-2.20
2019-01-21T22:07:10.557Z,-2.20
2019-01-21T22:09:15.577Z,-2.30
2019-01-21T22:11:26.695Z,-2.30
2019-01-21T22:13:31.481Z,-2.20
2019-01-21T22:15:36.228Z,-2.30
2019-01-21T22:17:41.293Z,-2.30
2019-01-21T22:19:47.499Z,-2.20
2019-01-21T22:21:54.379Z,-2.20
2019-01-21T22:24:01.150Z,-2.30
2019-01-21T22:26:05.306Z,-2.30
2019-01-21T22:28:10.630Z,-2.40
2019-01-21T22:30:17.570Z,-2.40
2019-01-21T22:32:22.251Z,-2.40
2019-01-21T22:34:26.814Z,-2.40
2019-01-21T22:36:31.449Z,-2.40
2019-01-21T22:38:36.042Z,-2.40
2019-01-21T22:40:41.779Z,-2.40
2019-01-21T22:42:46.369Z,-2.40
2019-01-21T22:44:52.922Z,-2.30
2019-01-21T22:46:58.056Z,-2.40
2019-01-21T22:49:02.619Z,-2.30
2019-01-21T22:51:07.102Z,-2.40
2019-01-21T22:53:11.933Z,-2.40
2019-01-21T22:55:18.182Z,-2.40
2019-01-21T22:57:24.598Z,-2.30
2019-01-21T22:59:29.339Z,-2.30
2019-01-21T23:01:34.985Z,-2.30
2019-01-21T23:03:39.920Z,-2.30
2019-01-21T23:05:44.840Z,-2.20
2019-01-21T23:07:49.587Z,-2.10
2019-01-21T23:09:54.125Z,-2.30
2019-01-21T23:12:04.918Z,-2.20
2019-01-21T23:14:09.606Z,-2.30
2019-01-21T23:16:14.646Z,-2.30
2019-01-21T23:18:22.970Z,-2.30
2019-01-21T23:20:28.096Z,-2.30
2019-01-21T23:22:32.637Z,-2.30
2019-01-21T23:24:37.277Z,-2.30
2019-01-21T23:26:41.907Z,-2.30
2019-01-21T23:28:46.455Z,-2.30
2019-01-21T23:30:51.085Z,-2.40
2019-01-21T23:32:57.807Z,-2.40
2019-01-21T23:35:04.130Z,-2.40
2019-01-21T23:37:08.796Z,-2.40
2019-01-21T23:39:14.336Z,-2.30
2019-01-21T23:41:20.927Z,-2.30
2019-01-21T23:43:25.870Z,-2.30
2019-01-21T23:45:32.304Z,-2.30
2019-01-21T23:47:36.631Z,-2.30
2019-01-21T23:49:41.295Z,-2.20
2019-01-21T23:51:45.818Z,-2.30
2019-01-21T23:53:50.361Z,-2.30
2019-01-21T23:55:54.928Z,-2.30
2019-01-21T23:57:59.648Z,-2.30
